CSHVD LPCS-LPCS

Flight info

Callsign CSHVD
Flight time 0h 4m
Altitude 1500
Route CCAIS
Aircraft R44/L-VGD/C

Departure

Time 2026-04-30 06:38
Airport Cascais Airport (LPCS)

Arrival

Time 2026-04-30 06:42
Airport Cascais Airport (LPCS)
Time Latitude Longitude Altitude Speed Heading
2026-04-30 06:28 38.72301 -9.35779 311 ft 0 kts 88°
2026-04-30 06:34 38.72305 -9.35779 314 ft 1 kts 127°
2026-04-30 06:34 38.72303 -9.35778 314 ft 0 kts 144°
2026-04-30 06:34 38.72294 -9.35758 317 ft 3 kts 87°
2026-04-30 06:35 38.72298 -9.35729 316 ft 6 kts 79°
2026-04-30 06:35 38.72308 -9.35688 319 ft 4 kts 82°
2026-04-30 06:35 38.72315 -9.35667 317 ft 2 kts 88°
2026-04-30 06:35 38.72319 -9.35637 324 ft 6 kts 76°
2026-04-30 06:36 38.72333 -9.35586 326 ft 6 kts 88°
2026-04-30 06:36 38.72340 -9.35548 327 ft 2 kts 78°
2026-04-30 06:36 38.72343 -9.35532 324 ft 3 kts 92°
2026-04-30 06:36 38.72352 -9.35508 331 ft 5 kts 88°
2026-04-30 06:37 38.72373 -9.35465 325 ft 1 kts 348°
2026-04-30 06:37 38.72416 -9.35477 333 ft 14 kts 354°
2026-04-30 06:37 38.72619 -9.35559 391 ft 52 kts 341°
2026-04-30 06:37 38.73071 -9.35725 460 ft 79 kts 342°
2026-04-30 06:38 38.73560 -9.35890 710 ft 69 kts 345°
2026-04-30 06:38 38.74043 -9.35989 953 ft 65 kts 351°
2026-04-30 06:38 38.74469 -9.36109 1189 ft 64 kts 334°
2026-04-30 06:38 38.74912 -9.36138 1407 ft 68 kts 25°
2026-04-30 06:39 38.75252 -9.35703 1588 ft 73 kts 51°
2026-04-30 06:39 38.75658 -9.35239 1710 ft 82 kts 40°
2026-04-30 06:39 38.76197 -9.34842 1651 ft 102 kts
2026-04-30 06:39 38.76696 -9.35293 1720 ft 85 kts 274°
2026-04-30 06:40 38.76349 -9.35572 1397 ft 109 kts 114°
2026-04-30 06:40 38.76017 -9.34956 1534 ft 80 kts 157°
2026-04-30 06:40 38.75583 -9.34835 1748 ft 66 kts 195°
2026-04-30 06:40 38.75147 -9.35072 1854 ft 69 kts 205°
2026-04-30 06:41 38.74690 -9.35375 1892 ft 77 kts 205°
2026-04-30 06:41 38.74218 -9.35668 1864 ft 79 kts 189°
2026-04-30 06:41 38.73658 -9.35716 1398 ft 84 kts 178°
2026-04-30 06:41 38.73101 -9.35719 1017 ft 78 kts 168°
2026-04-30 06:42 38.72641 -9.35552 736 ft 62 kts 176°
2026-04-30 06:42 38.72243 -9.35413 505 ft 50 kts 166°
2026-04-30 06:42 38.71954 -9.35313 333 ft 29 kts 173°
2026-04-30 06:42 38.71917 -9.35303 301 ft 0 kts 215°
2026-04-30 06:43 38.71918 -9.35304 301 ft 0 kts 179°
2026-04-30 06:43 38.71895 -9.35306 335 ft 3 kts 169°
2026-04-30 06:43 38.71887 -9.35290 448 ft 6 kts 171°
2026-04-30 06:43 38.71890 -9.35282 593 ft 5 kts 181°
2026-04-30 06:44 38.71880 -9.35283 728 ft 9 kts 201°
2026-04-30 06:44 38.71688 -9.35267 858 ft 50 kts 158°
2026-04-30 06:44 38.71307 -9.35059 997 ft 65 kts 163°
2026-04-30 06:44 38.70879 -9.34884 1204 ft 64 kts 166°
2026-04-30 06:45 38.70382 -9.34787 1252 ft 76 kts 202°
2026-04-30 06:45 38.70287 -9.35349 1461 ft 71 kts 300°
2026-04-30 06:45 38.70770 -9.35478 1560 ft 78 kts 14°
2026-04-30 06:45 38.71275 -9.35336 1362 ft 78 kts 358°
2026-04-30 06:46 38.71804 -9.35259 934 ft 84 kts 347°
2026-04-30 06:46 38.72358 -9.35453 531 ft 79 kts 332°
2026-04-30 06:46 38.72778 -9.35608 394 ft 46 kts 336°
2026-04-30 06:46 38.72884 -9.35646 332 ft 0 kts 25°
2026-04-30 06:48 38.72883 -9.35651 341 ft 1 kts
2026-04-30 06:48 38.72908 -9.35662 367 ft 12 kts
2026-04-30 06:49 38.73087 -9.35707 516 ft 40 kts 339°
2026-04-30 06:49 38.73430 -9.35868 712 ft 61 kts 336°
2026-04-30 06:49 38.73855 -9.36019 941 ft 68 kts 344°
2026-04-30 06:49 38.74346 -9.36187 1145 ft 75 kts 343°
2026-04-30 06:50 38.74873 -9.36197 1310 ft 83 kts 21°
2026-04-30 06:50 38.75421 -9.35819 1398 ft 92 kts 27°
2026-04-30 06:50 38.76064 -9.35625 1429 ft 101 kts 356°
2026-04-30 06:50 38.76647 -9.35963 1552 ft 90 kts 310°
2026-04-30 06:51 38.76786 -9.36687 1464 ft 85 kts 239°
2026-04-30 06:51 38.76324 -9.36998 1410 ft 84 kts 156°
2026-04-30 06:51 38.75776 -9.36709 1377 ft 83 kts 162°
2026-04-30 06:51 38.75238 -9.36493 1401 ft 78 kts 162°
2026-04-30 06:52 38.74730 -9.36289 1431 ft 74 kts 168°
2026-04-30 06:52 38.74194 -9.36055 1002 ft 89 kts 159°
2026-04-30 06:52 38.73677 -9.35877 778 ft 66 kts 164°
2026-04-30 06:52 38.73256 -9.35782 481 ft 58 kts 169°
2026-04-30 06:53 38.72980 -9.35692 343 ft 22 kts 166°
2026-04-30 06:53 38.72969 -9.35687 333 ft 0 kts 173°
2026-04-30 06:54 38.72954 -9.35681 341 ft 6 kts 182°
2026-04-30 06:54 38.72902 -9.35664 348 ft 9 kts 185°
2026-04-30 06:55 38.72756 -9.35607 371 ft 30 kts 160°
2026-04-30 06:55 38.72598 -9.35560 371 ft 16 kts 169°
2026-04-30 06:55 38.72538 -9.35577 337 ft 3 kts 263°
2026-04-30 06:55 38.72533 -9.35612 333 ft 2 kts 249°
2026-04-30 06:56 38.72498 -9.35623 336 ft 4 kts 197°
2026-04-30 06:56 38.72440 -9.35609 363 ft 14 kts 170°
2026-04-30 06:56 38.72377 -9.35580 338 ft 8 kts 177°
2026-04-30 06:56 38.72343 -9.35575 328 ft 5 kts 229°
2026-04-30 06:57 38.72311 -9.35672 336 ft 9 kts 264°
2026-04-30 06:57 38.72298 -9.35731 325 ft 4 kts 281°
2026-04-30 06:57 38.72296 -9.35773 323 ft 1 kts 310°
2026-04-30 06:57 38.72302 -9.35780 316 ft 2 kts 110°
2026-04-30 06:58 38.72299 -9.35782 318 ft 2 kts 111°
2026-04-30 06:58 38.72297 -9.35780 311 ft 0 kts 105°